Pagrindinis puslapis
METAR-TAF:

METAR-TAF

Oro uostai :

Sučava, Rumunija

platuma: 47-39N, ilguma: 026-15E, Aukštis: 351 m

Dabartinis oras

Ataskaita buvo paskelbta 30 minutes, ne 15:00 UTC
Vėjas 15 kt iš Rytų
Temperatūra 16°C
Drėgmė 55%
Slėgis 1010 hPa
Matomumas 10 km arba daugiau
Su prošvaistėmis ne aukštis 4300 ft

METAR: LRSV 121500Z 10015KT 9999 BKN043 16/07 Q1010

Laikas: 18:30 (15:30 UTC)

Prognozė

Ataskaita buvo paskelbta 1 valandą ir 30 minutes, ne 14:00 UTC
Prognozė galioja nuo 12 metu 15 UTC su 13 metu 00 UTC
Vėjas 15 kt iš Rytų/Pietryčių
Matomumas 10 km arba daugiau
Su prošvaistėmis ne aukštis 3500 ft

TAF: LRSV 121400Z 1215/1300 11015KT 9999 BKN035

Orai ataskaitas ir orų prognozės (METAR, TAF).

turimą stotys yra geltonos ir raudonos taškus žemėlapyje.

Perkelti pele per norėdami pamatyti stoties vardą.

Tada spustelėkite, norėdami matyti oro stebėjimo ir prognozės.

Norėdami pakeisti žemėlapį: spustelėkite ant žalios mygtukų su juodo kryžiaus žemyn,; žalią mygtuką su brūkšneliu, jei norite nutolinti; arba žalių rodyklių gretimoms žemėlapius.


METAR-TAF: